Terminal Aerodrome Forecast
Issued by NWS

Home | Current Version | Previous Version | Text Only | Print | Product List | Glossary Off
Versions: 1 2 3 4 5 6 7 8 9 10 11 12 13 14 15 16 17

000
FTUS43 KMPX 241700
TAFRNH
TAF
KRNH 241737Z 2418/2518 16010KT P6SM VCSH BKN020
     FM242000 16012G18KT P6SM SCT020 BKN035
     FM250100 18008KT P6SM VCTS SCT025CB BKN050
      TEMPO 2502/2505 2SM -TSRA BKN020CB
     FM250700 19003KT P6SM SCT030 BKN100
     FM251400 24007KT P6SM SCT020=

USA.gov is the U.S. government's official web portal to all federal, state and local government web resources and services.